sensor_id;sensor_type;location;lat;lon;timestamp;P1;durP1;ratioP1;P2;durP2;ratioP2
52102;SDS011;38101;53.126;6.878;2023-04-09T00:01:55;35.65;;;23.42;;
52102;SDS011;38101;53.126;6.878;2023-04-09T00:04:21;34.97;;;23.80;;
52102;SDS011;38101;53.126;6.878;2023-04-09T00:06:47;36.47;;;22.55;;
52102;SDS011;38101;53.126;6.878;2023-04-09T00:09:13;31.48;;;20.35;;
52102;SDS011;38101;53.126;6.878;2023-04-09T00:11:39;29.17;;;19.70;;
52102;SDS011;38101;53.126;6.878;2023-04-09T00:14:04;26.35;;;17.65;;
52102;SDS011;38101;53.126;6.878;2023-04-09T00:16:30;27.02;;;17.27;;
52102;SDS011;38101;53.126;6.878;2023-04-09T00:18:56;23.38;;;16.90;;
52102;SDS011;38101;53.126;6.878;2023-04-09T00:21:22;24.40;;;16.90;;
52102;SDS011;38101;53.126;6.878;2023-04-09T00:23:47;23.45;;;17.25;;
52102;SDS011;38101;53.126;6.878;2023-04-09T00:26:13;21.65;;;16.08;;
52102;SDS011;38101;53.126;6.878;2023-04-09T00:28:39;21.90;;;15.90;;
52102;SDS011;38101;53.126;6.878;2023-04-09T00:31:05;24.05;;;17.20;;
52102;SDS011;38101;53.126;6.878;2023-04-09T00:33:31;25.60;;;17.15;;
52102;SDS011;38101;53.126;6.878;2023-04-09T00:35:56;24.23;;;16.75;;
52102;SDS011;38101;53.126;6.878;2023-04-09T00:38:22;23.50;;;17.45;;
52102;SDS011;38101;53.126;6.878;2023-04-09T00:40:48;26.55;;;17.27;;
52102;SDS011;38101;53.126;6.878;2023-04-09T00:43:15;26.90;;;17.58;;
52102;SDS011;38101;53.126;6.878;2023-04-09T00:45:43;23.90;;;17.08;;
52102;SDS011;38101;53.126;6.878;2023-04-09T00:48:10;25.60;;;16.50;;
52102;SDS011;38101;53.126;6.878;2023-04-09T00:50:37;24.60;;;16.63;;
52102;SDS011;38101;53.126;6.878;2023-04-09T00:53:03;23.58;;;17.50;;
52102;SDS011;38101;53.126;6.878;2023-04-09T00:55:29;24.50;;;17.23;;
52102;SDS011;38101;53.126;6.878;2023-04-09T00:57:56;23.75;;;16.98;;
52102;SDS011;38101;53.126;6.878;2023-04-09T01:00:21;25.20;;;16.98;;
52102;SDS011;38101;53.126;6.878;2023-04-09T01:02:47;28.58;;;18.77;;
52102;SDS011;38101;53.126;6.878;2023-04-09T01:05:15;25.42;;;17.85;;
52102;SDS011;38101;53.126;6.878;2023-04-09T01:10:42;26.05;;;18.38;;
52102;SDS011;38101;53.126;6.878;2023-04-09T01:13:14;25.65;;;18.50;;
52102;SDS011;38101;53.126;6.878;2023-04-09T01:15:47;25.23;;;17.65;;
52102;SDS011;38101;53.126;6.878;2023-04-09T01:20:51;25.90;;;17.92;;
52102;SDS011;38101;53.126;6.878;2023-04-09T01:23:36;27.20;;;18.80;;
52102;SDS011;38101;53.126;6.878;2023-04-09T01:26:31;24.98;;;18.02;;
52102;SDS011;38101;53.126;6.878;2023-04-09T01:29:02;23.92;;;17.17;;
52102;SDS011;38101;53.126;6.878;2023-04-09T01:31:31;25.35;;;17.52;;
52102;SDS011;38101;53.126;6.878;2023-04-09T01:34:00;26.42;;;18.23;;
52102;SDS011;38101;53.126;6.878;2023-04-09T01:36:27;28.23;;;17.65;;
52102;SDS011;38101;53.126;6.878;2023-04-09T01:38:56;27.77;;;18.88;;
52102;SDS011;38101;53.126;6.878;2023-04-09T01:41:24;26.15;;;18.35;;
52102;SDS011;38101;53.126;6.878;2023-04-09T01:43:51;26.83;;;18.80;;
52102;SDS011;38101;53.126;6.878;2023-04-09T01:46:17;26.88;;;18.15;;
52102;SDS011;38101;53.126;6.878;2023-04-09T01:48:45;27.73;;;18.48;;
52102;SDS011;38101;53.126;6.878;2023-04-09T01:51:11;28.67;;;19.45;;
52102;SDS011;38101;53.126;6.878;2023-04-09T01:53:38;28.00;;;18.90;;
52102;SDS011;38101;53.126;6.878;2023-04-09T01:56:05;29.00;;;18.67;;
52102;SDS011;38101;53.126;6.878;2023-04-09T01:58:31;27.08;;;18.25;;
52102;SDS011;38101;53.126;6.878;2023-04-09T02:01:05;28.95;;;18.85;;
52102;SDS011;38101;53.126;6.878;2023-04-09T02:03:38;29.35;;;19.30;;
52102;SDS011;38101;53.126;6.878;2023-04-09T02:08:57;27.20;;;18.98;;
52102;SDS011;38101;53.126;6.878;2023-04-09T02:11:24;27.42;;;19.35;;
52102;SDS011;38101;53.126;6.878;2023-04-09T02:13:53;31.67;;;19.48;;
52102;SDS011;38101;53.126;6.878;2023-04-09T02:16:20;27.70;;;19.10;;
52102;SDS011;38101;53.126;6.878;2023-04-09T02:18:49;28.13;;;18.52;;
52102;SDS011;38101;53.126;6.878;2023-04-09T02:21:26;28.25;;;19.52;;
52102;SDS011;38101;53.126;6.878;2023-04-09T02:23:52;30.80;;;19.10;;
52102;SDS011;38101;53.126;6.878;2023-04-09T02:26:20;29.58;;;18.58;;
52102;SDS011;38101;53.126;6.878;2023-04-09T02:28:46;25.83;;;18.35;;
52102;SDS011;38101;53.126;6.878;2023-04-09T02:31:11;26.77;;;18.42;;
52102;SDS011;38101;53.126;6.878;2023-04-09T02:33:37;27.27;;;19.60;;
52102;SDS011;38101;53.126;6.878;2023-04-09T02:36:04;27.00;;;19.45;;
52102;SDS011;38101;53.126;6.878;2023-04-09T02:38:30;29.23;;;20.15;;
52102;SDS011;38101;53.126;6.878;2023-04-09T02:40:56;29.38;;;19.65;;
52102;SDS011;38101;53.126;6.878;2023-04-09T02:43:21;27.08;;;20.35;;
52102;SDS011;38101;53.126;6.878;2023-04-09T02:45:47;29.42;;;20.45;;
52102;SDS011;38101;53.126;6.878;2023-04-09T02:48:13;29.42;;;19.90;;
52102;SDS011;38101;53.126;6.878;2023-04-09T02:50:39;29.83;;;19.83;;
52102;SDS011;38101;53.126;6.878;2023-04-09T02:53:05;28.77;;;20.25;;
52102;SDS011;38101;53.126;6.878;2023-04-09T02:55:30;28.90;;;20.33;;
52102;SDS011;38101;53.126;6.878;2023-04-09T02:57:56;30.92;;;21.30;;
52102;SDS011;38101;53.126;6.878;2023-04-09T03:00:22;27.52;;;20.67;;
52102;SDS011;38101;53.126;6.878;2023-04-09T03:02:47;29.50;;;20.75;;
52102;SDS011;38101;53.126;6.878;2023-04-09T03:05:13;28.35;;;20.17;;
52102;SDS011;38101;53.126;6.878;2023-04-09T03:07:38;29.73;;;19.73;;
52102;SDS011;38101;53.126;6.878;2023-04-09T03:10:04;30.60;;;21.27;;
52102;SDS011;38101;53.126;6.878;2023-04-09T03:12:30;28.55;;;20.55;;
52102;SDS011;38101;53.126;6.878;2023-04-09T03:14:56;32.50;;;21.35;;
52102;SDS011;38101;53.126;6.878;2023-04-09T03:17:22;30.67;;;20.83;;
52102;SDS011;38101;53.126;6.878;2023-04-09T03:19:51;26.92;;;20.13;;
52102;SDS011;38101;53.126;6.878;2023-04-09T03:22:17;27.42;;;20.33;;
52102;SDS011;38101;53.126;6.878;2023-04-09T03:24:42;28.88;;;20.17;;
52102;SDS011;38101;53.126;6.878;2023-04-09T03:27:08;32.17;;;21.50;;
52102;SDS011;38101;53.126;6.878;2023-04-09T03:29:34;29.42;;;20.05;;
52102;SDS011;38101;53.126;6.878;2023-04-09T03:32:00;32.28;;;20.73;;
52102;SDS011;38101;53.126;6.878;2023-04-09T03:34:25;33.75;;;21.77;;
52102;SDS011;38101;53.126;6.878;2023-04-09T03:36:51;31.27;;;20.88;;
52102;SDS011;38101;53.126;6.878;2023-04-09T03:39:17;38.03;;;23.13;;
52102;SDS011;38101;53.126;6.878;2023-04-09T03:41:43;31.83;;;21.52;;
52102;SDS011;38101;53.126;6.878;2023-04-09T03:44:08;34.90;;;22.98;;
52102;SDS011;38101;53.126;6.878;2023-04-09T03:46:34;36.42;;;23.55;;
52102;SDS011;38101;53.126;6.878;2023-04-09T03:49:00;34.72;;;23.15;;
52102;SDS011;38101;53.126;6.878;2023-04-09T03:51:26;32.03;;;22.15;;
52102;SDS011;38101;53.126;6.878;2023-04-09T03:53:51;37.53;;;23.80;;
52102;SDS011;38101;53.126;6.878;2023-04-09T03:56:17;35.28;;;22.90;;
52102;SDS011;38101;53.126;6.878;2023-04-09T03:58:43;31.95;;;23.35;;
52102;SDS011;38101;53.126;6.878;2023-04-09T04:01:08;39.47;;;23.42;;
52102;SDS011;38101;53.126;6.878;2023-04-09T04:03:34;33.95;;;23.38;;
52102;SDS011;38101;53.126;6.878;2023-04-09T04:06:00;34.95;;;23.05;;
52102;SDS011;38101;53.126;6.878;2023-04-09T04:08:27;35.50;;;24.70;;
52102;SDS011;38101;53.126;6.878;2023-04-09T04:10:53;34.30;;;23.15;;
52102;SDS011;38101;53.126;6.878;2023-04-09T04:13:19;34.05;;;23.48;;
52102;SDS011;38101;53.126;6.878;2023-04-09T04:15:45;36.05;;;23.52;;
52102;SDS011;38101;53.126;6.878;2023-04-09T04:18:10;37.92;;;24.35;;
52102;SDS011;38101;53.126;6.878;2023-04-09T04:20:36;37.90;;;24.27;;
52102;SDS011;38101;53.126;6.878;2023-04-09T04:23:03;33.47;;;23.55;;
52102;SDS011;38101;53.126;6.878;2023-04-09T04:25:29;37.13;;;23.92;;
52102;SDS011;38101;53.126;6.878;2023-04-09T04:27:55;35.28;;;25.38;;
52102;SDS011;38101;53.126;6.878;2023-04-09T04:30:21;34.65;;;23.17;;
52102;SDS011;38101;53.126;6.878;2023-04-09T04:32:47;37.92;;;24.88;;
52102;SDS011;38101;53.126;6.878;2023-04-09T04:35:14;36.58;;;23.88;;
52102;SDS011;38101;53.126;6.878;2023-04-09T04:37:39;38.15;;;23.77;;
52102;SDS011;38101;53.126;6.878;2023-04-09T04:40:06;36.90;;;24.00;;
52102;SDS011;38101;53.126;6.878;2023-04-09T04:42:33;35.83;;;24.02;;
52102;SDS011;38101;53.126;6.878;2023-04-09T04:44:58;38.65;;;23.52;;
52102;SDS011;38101;53.126;6.878;2023-04-09T04:47:24;39.60;;;25.35;;
52102;SDS011;38101;53.126;6.878;2023-04-09T04:49:50;40.58;;;25.20;;
52102;SDS011;38101;53.126;6.878;2023-04-09T04:52:16;36.45;;;25.33;;
52102;SDS011;38101;53.126;6.878;2023-04-09T04:54:42;34.60;;;24.75;;
52102;SDS011;38101;53.126;6.878;2023-04-09T04:57:08;36.67;;;24.60;;
52102;SDS011;38101;53.126;6.878;2023-04-09T04:59:37;39.67;;;24.83;;
52102;SDS011;38101;53.126;6.878;2023-04-09T05:02:04;37.97;;;25.75;;
52102;SDS011;38101;53.126;6.878;2023-04-09T05:04:30;41.15;;;26.38;;
52102;SDS011;38101;53.126;6.878;2023-04-09T05:06:55;38.63;;;26.17;;
52102;SDS011;38101;53.126;6.878;2023-04-09T05:09:21;38.72;;;25.02;;
52102;SDS011;38101;53.126;6.878;2023-04-09T05:11:47;38.42;;;25.58;;
52102;SDS011;38101;53.126;6.878;2023-04-09T05:14:12;39.53;;;25.75;;
52102;SDS011;38101;53.126;6.878;2023-04-09T05:16:38;37.03;;;25.85;;
52102;SDS011;38101;53.126;6.878;2023-04-09T05:19:04;42.10;;;27.60;;
52102;SDS011;38101;53.126;6.878;2023-04-09T05:21:30;39.95;;;26.13;;
52102;SDS011;38101;53.126;6.878;2023-04-09T05:23:56;40.13;;;26.73;;
52102;SDS011;38101;53.126;6.878;2023-04-09T05:26:22;38.67;;;26.98;;
52102;SDS011;38101;53.126;6.878;2023-04-09T05:28:48;40.95;;;27.58;;
52102;SDS011;38101;53.126;6.878;2023-04-09T05:31:14;44.80;;;27.20;;
52102;SDS011;38101;53.126;6.878;2023-04-09T05:33:40;42.83;;;28.08;;
52102;SDS011;38101;53.126;6.878;2023-04-09T05:36:06;38.13;;;26.98;;
52102;SDS011;38101;53.126;6.878;2023-04-09T05:38:32;40.35;;;26.92;;
52102;SDS011;38101;53.126;6.878;2023-04-09T05:40:58;40.78;;;27.42;;
52102;SDS011;38101;53.126;6.878;2023-04-09T05:43:24;42.60;;;28.58;;
52102;SDS011;38101;53.126;6.878;2023-04-09T05:45:50;42.75;;;29.13;;
52102;SDS011;38101;53.126;6.878;2023-04-09T05:48:15;42.38;;;28.98;;
52102;SDS011;38101;53.126;6.878;2023-04-09T05:50:52;45.15;;;30.98;;
52102;SDS011;38101;53.126;6.878;2023-04-09T05:53:18;49.15;;;31.73;;
52102;SDS011;38101;53.126;6.878;2023-04-09T05:55:45;45.03;;;30.35;;
52102;SDS011;38101;53.126;6.878;2023-04-09T05:58:12;50.70;;;32.22;;
52102;SDS011;38101;53.126;6.878;2023-04-09T06:00:38;42.90;;;30.83;;
52102;SDS011;38101;53.126;6.878;2023-04-09T06:03:03;44.47;;;29.88;;
52102;SDS011;38101;53.126;6.878;2023-04-09T06:05:29;46.15;;;30.92;;
52102;SDS011;38101;53.126;6.878;2023-04-09T06:07:55;44.00;;;30.55;;
52102;SDS011;38101;53.126;6.878;2023-04-09T06:10:21;44.00;;;29.48;;
52102;SDS011;38101;53.126;6.878;2023-04-09T06:12:47;44.88;;;29.13;;
52102;SDS011;38101;53.126;6.878;2023-04-09T06:15:12;45.15;;;29.52;;
52102;SDS011;38101;53.126;6.878;2023-04-09T06:17:38;44.38;;;29.33;;
52102;SDS011;38101;53.126;6.878;2023-04-09T06:20:04;39.95;;;28.13;;
52102;SDS011;38101;53.126;6.878;2023-04-09T06:22:30;45.05;;;28.35;;
52102;SDS011;38101;53.126;6.878;2023-04-09T06:24:56;41.97;;;27.45;;
52102;SDS011;38101;53.126;6.878;2023-04-09T06:27:22;40.95;;;28.23;;
52102;SDS011;38101;53.126;6.878;2023-04-09T06:29:47;41.47;;;28.73;;
52102;SDS011;38101;53.126;6.878;2023-04-09T06:32:13;38.38;;;27.70;;
52102;SDS011;38101;53.126;6.878;2023-04-09T06:34:39;39.55;;;27.05;;
52102;SDS011;38101;53.126;6.878;2023-04-09T06:37:04;38.88;;;26.77;;
52102;SDS011;38101;53.126;6.878;2023-04-09T06:39:30;39.63;;;27.45;;
52102;SDS011;38101;53.126;6.878;2023-04-09T06:41:57;37.63;;;25.63;;
52102;SDS011;38101;53.126;6.878;2023-04-09T06:44:22;39.25;;;26.02;;
52102;SDS011;38101;53.126;6.878;2023-04-09T06:46:48;37.40;;;24.25;;
52102;SDS011;38101;53.126;6.878;2023-04-09T06:49:14;33.42;;;23.25;;
52102;SDS011;38101;53.126;6.878;2023-04-09T06:51:40;33.72;;;22.92;;
52102;SDS011;38101;53.126;6.878;2023-04-09T06:54:05;36.75;;;23.73;;
52102;SDS011;38101;53.126;6.878;2023-04-09T06:56:32;43.83;;;24.98;;
52102;SDS011;38101;53.126;6.878;2023-04-09T06:58:58;38.05;;;24.15;;
52102;SDS011;38101;53.126;6.878;2023-04-09T07:01:24;37.75;;;23.88;;
52102;SDS011;38101;53.126;6.878;2023-04-09T07:03:50;36.08;;;22.75;;
52102;SDS011;38101;53.126;6.878;2023-04-09T07:06:16;31.92;;;22.05;;
52102;SDS011;38101;53.126;6.878;2023-04-09T07:08:42;34.42;;;21.90;;
52102;SDS011;38101;53.126;6.878;2023-04-09T07:11:08;34.85;;;22.35;;
52102;SDS011;38101;53.126;6.878;2023-04-09T07:13:34;35.72;;;23.17;;
52102;SDS011;38101;53.126;6.878;2023-04-09T07:15:59;30.02;;;21.25;;
52102;SDS011;38101;53.126;6.878;2023-04-09T07:18:25;36.38;;;22.42;;
52102;SDS011;38101;53.126;6.878;2023-04-09T07:20:51;35.60;;;21.58;;
52102;SDS011;38101;53.126;6.878;2023-04-09T07:23:17;35.63;;;23.33;;
52102;SDS011;38101;53.126;6.878;2023-04-09T07:25:43;33.42;;;22.75;;
52102;SDS011;38101;53.126;6.878;2023-04-09T07:28:09;36.45;;;22.63;;
52102;SDS011;38101;53.126;6.878;2023-04-09T07:30:35;34.70;;;22.65;;
52102;SDS011;38101;53.126;6.878;2023-04-09T07:33:01;37.17;;;22.17;;
52102;SDS011;38101;53.126;6.878;2023-04-09T07:35:27;34.38;;;23.30;;
52102;SDS011;38101;53.126;6.878;2023-04-09T07:37:53;33.28;;;22.15;;
52102;SDS011;38101;53.126;6.878;2023-04-09T07:40:18;31.20;;;22.02;;
52102;SDS011;38101;53.126;6.878;2023-04-09T07:42:44;35.75;;;23.25;;
52102;SDS011;38101;53.126;6.878;2023-04-09T07:45:10;36.78;;;23.38;;
52102;SDS011;38101;53.126;6.878;2023-04-09T07:47:37;34.50;;;22.10;;
52102;SDS011;38101;53.126;6.878;2023-04-09T07:50:04;35.67;;;23.08;;
52102;SDS011;38101;53.126;6.878;2023-04-09T07:52:31;34.95;;;23.67;;
52102;SDS011;38101;53.126;6.878;2023-04-09T07:54:56;35.40;;;23.70;;
52102;SDS011;38101;53.126;6.878;2023-04-09T07:57:22;35.08;;;23.52;;
52102;SDS011;38101;53.126;6.878;2023-04-09T07:59:48;32.85;;;22.23;;
52102;SDS011;38101;53.126;6.878;2023-04-09T08:02:14;37.20;;;23.35;;
52102;SDS011;38101;53.126;6.878;2023-04-09T08:04:39;37.45;;;24.83;;
52102;SDS011;38101;53.126;6.878;2023-04-09T08:07:05;32.80;;;22.75;;
52102;SDS011;38101;53.126;6.878;2023-04-09T08:09:31;33.47;;;22.92;;
52102;SDS011;38101;53.126;6.878;2023-04-09T08:11:57;31.70;;;22.02;;
52102;SDS011;38101;53.126;6.878;2023-04-09T08:14:23;35.15;;;21.92;;
52102;SDS011;38101;53.126;6.878;2023-04-09T08:16:48;31.92;;;21.98;;
52102;SDS011;38101;53.126;6.878;2023-04-09T08:19:15;35.50;;;22.20;;
52102;SDS011;38101;53.126;6.878;2023-04-09T08:21:41;31.25;;;20.92;;
52102;SDS011;38101;53.126;6.878;2023-04-09T08:24:08;29.33;;;20.17;;
52102;SDS011;38101;53.126;6.878;2023-04-09T08:26:35;31.38;;;21.80;;
52102;SDS011;38101;53.126;6.878;2023-04-09T08:29:02;31.45;;;21.00;;
52102;SDS011;38101;53.126;6.878;2023-04-09T08:31:27;30.10;;;20.88;;
52102;SDS011;38101;53.126;6.878;2023-04-09T08:33:53;32.45;;;21.48;;
52102;SDS011;38101;53.126;6.878;2023-04-09T08:36:19;29.92;;;20.52;;
52102;SDS011;38101;53.126;6.878;2023-04-09T08:38:45;28.50;;;19.73;;
52102;SDS011;38101;53.126;6.878;2023-04-09T08:41:16;31.30;;;21.38;;
52102;SDS011;38101;53.126;6.878;2023-04-09T08:43:46;28.65;;;21.00;;
52102;SDS011;38101;53.126;6.878;2023-04-09T08:46:13;33.15;;;21.98;;
52102;SDS011;38101;53.126;6.878;2023-04-09T08:48:41;32.70;;;22.33;;
52102;SDS011;38101;53.126;6.878;2023-04-09T08:53:47;32.63;;;21.55;;
52102;SDS011;38101;53.126;6.878;2023-04-09T08:56:17;30.10;;;21.00;;
52102;SDS011;38101;53.126;6.878;2023-04-09T08:58:45;32.65;;;22.10;;
52102;SDS011;38101;53.126;6.878;2023-04-09T09:01:27;31.75;;;22.05;;
52102;SDS011;38101;53.126;6.878;2023-04-09T09:06:28;29.52;;;20.83;;
52102;SDS011;38101;53.126;6.878;2023-04-09T09:09:09;34.03;;;22.85;;
52102;SDS011;38101;53.126;6.878;2023-04-09T09:11:44;32.78;;;22.38;;
52102;SDS011;38101;53.126;6.878;2023-04-09T09:14:17;32.28;;;22.60;;
52102;SDS011;38101;53.126;6.878;2023-04-09T09:17:01;31.15;;;21.80;;
52102;SDS011;38101;53.126;6.878;2023-04-09T09:19:29;32.45;;;22.52;;
52102;SDS011;38101;53.126;6.878;2023-04-09T09:22:02;33.47;;;22.75;;
52102;SDS011;38101;53.126;6.878;2023-04-09T09:24:30;31.45;;;21.80;;
52102;SDS011;38101;53.126;6.878;2023-04-09T09:26:57;35.22;;;23.27;;
52102;SDS011;38101;53.126;6.878;2023-04-09T09:29:24;31.20;;;22.33;;
52102;SDS011;38101;53.126;6.878;2023-04-09T09:31:50;31.63;;;21.90;;
52102;SDS011;38101;53.126;6.878;2023-04-09T09:34:19;30.80;;;21.75;;
52102;SDS011;38101;53.126;6.878;2023-04-09T09:36:46;29.55;;;21.65;;
52102;SDS011;38101;53.126;6.878;2023-04-09T09:39:12;33.67;;;23.20;;
52102;SDS011;38101;53.126;6.878;2023-04-09T09:41:41;29.55;;;22.02;;
52102;SDS011;38101;53.126;6.878;2023-04-09T09:44:08;33.28;;;23.45;;
52102;SDS011;38101;53.126;6.878;2023-04-09T09:46:38;28.65;;;21.25;;
52102;SDS011;38101;53.126;6.878;2023-04-09T09:49:06;31.88;;;21.98;;
52102;SDS011;38101;53.126;6.878;2023-04-09T09:51:34;30.15;;;22.00;;
52102;SDS011;38101;53.126;6.878;2023-04-09T09:54:03;32.67;;;21.92;;
52102;SDS011;38101;53.126;6.878;2023-04-09T09:56:36;31.33;;;22.65;;
52102;SDS011;38101;53.126;6.878;2023-04-09T10:01:37;30.30;;;21.90;;
52102;SDS011;38101;53.126;6.878;2023-04-09T10:04:04;30.58;;;21.90;;
52102;SDS011;38101;53.126;6.878;2023-04-09T10:06:35;32.60;;;22.15;;
52102;SDS011;38101;53.126;6.878;2023-04-09T10:09:03;31.73;;;22.02;;
52102;SDS011;38101;53.126;6.878;2023-04-09T10:11:32;30.00;;;20.95;;
52102;SDS011;38101;53.126;6.878;2023-04-09T10:13:59;27.23;;;19.83;;
52102;SDS011;38101;53.126;6.878;2023-04-09T10:16:25;29.45;;;19.75;;
52102;SDS011;38101;53.126;6.878;2023-04-09T10:18:55;27.35;;;19.50;;
52102;SDS011;38101;53.126;6.878;2023-04-09T10:24:03;29.48;;;20.23;;
52102;SDS011;38101;53.126;6.878;2023-04-09T10:26:32;29.17;;;20.10;;
52102;SDS011;38101;53.126;6.878;2023-04-09T10:29:08;26.83;;;19.58;;
52102;SDS011;38101;53.126;6.878;2023-04-09T10:34:39;30.08;;;19.73;;
52102;SDS011;38101;53.126;6.878;2023-04-09T10:37:07;26.38;;;19.63;;
52102;SDS011;38101;53.126;6.878;2023-04-09T10:39:36;32.15;;;22.15;;
52102;SDS011;38101;53.126;6.878;2023-04-09T10:42:20;31.15;;;21.15;;
52102;SDS011;38101;53.126;6.878;2023-04-09T10:47:31;27.48;;;19.70;;
52102;SDS011;38101;53.126;6.878;2023-04-09T10:50:12;28.25;;;20.50;;
52102;SDS011;38101;53.126;6.878;2023-04-09T10:52:39;29.17;;;20.15;;
52102;SDS011;38101;53.126;6.878;2023-04-09T10:55:06;28.55;;;21.00;;
52102;SDS011;38101;53.126;6.878;2023-04-09T10:57:32;28.92;;;20.13;;
52102;SDS011;38101;53.126;6.878;2023-04-09T10:59:57;30.05;;;20.38;;
52102;SDS011;38101;53.126;6.878;2023-04-09T11:08:02;24.38;;;18.35;;
52102;SDS011;38101;53.126;6.878;2023-04-09T11:10:36;25.23;;;18.98;;
52102;SDS011;38101;53.126;6.878;2023-04-09T11:13:03;22.10;;;16.83;;
52102;SDS011;38101;53.126;6.878;2023-04-09T11:15:30;23.42;;;16.83;;
52102;SDS011;38101;53.126;6.878;2023-04-09T11:17:57;25.27;;;18.15;;
52102;SDS011;38101;53.126;6.878;2023-04-09T11:20:23;26.75;;;19.58;;
52102;SDS011;38101;53.126;6.878;2023-04-09T11:22:50;24.05;;;18.13;;
52102;SDS011;38101;53.126;6.878;2023-04-09T11:25:24;27.80;;;19.70;;
52102;SDS011;38101;53.126;6.878;2023-04-09T11:27:51;28.25;;;18.95;;
52102;SDS011;38101;53.126;6.878;2023-04-09T11:30:17;28.08;;;19.60;;
52102;SDS011;38101;53.126;6.878;2023-04-09T11:32:43;27.60;;;19.20;;
52102;SDS011;38101;53.126;6.878;2023-04-09T11:35:10;27.17;;;19.88;;
52102;SDS011;38101;53.126;6.878;2023-04-09T11:37:38;24.70;;;17.52;;
52102;SDS011;38101;53.126;6.878;2023-04-09T11:40:04;25.35;;;17.85;;
52102;SDS011;38101;53.126;6.878;2023-04-09T11:42:30;22.67;;;16.02;;
52102;SDS011;38101;53.126;6.878;2023-04-09T11:44:56;24.08;;;17.05;;
52102;SDS011;38101;53.126;6.878;2023-04-09T11:47:22;23.80;;;17.88;;
52102;SDS011;38101;53.126;6.878;2023-04-09T11:49:48;26.80;;;19.10;;
52102;SDS011;38101;53.126;6.878;2023-04-09T11:52:15;25.42;;;18.40;;
52102;SDS011;38101;53.126;6.878;2023-04-09T11:54:41;25.30;;;18.55;;
52102;SDS011;38101;53.126;6.878;2023-04-09T11:57:07;22.50;;;16.08;;
52102;SDS011;38101;53.126;6.878;2023-04-09T11:59:32;23.48;;;17.63;;
52102;SDS011;38101;53.126;6.878;2023-04-09T12:01:58;23.17;;;17.60;;
52102;SDS011;38101;53.126;6.878;2023-04-09T12:04:25;22.25;;;16.33;;
52102;SDS011;38101;53.126;6.878;2023-04-09T12:06:55;21.33;;;16.42;;
52102;SDS011;38101;53.126;6.878;2023-04-09T12:09:22;20.77;;;15.95;;
52102;SDS011;38101;53.126;6.878;2023-04-09T12:11:49;20.35;;;15.60;;
52102;SDS011;38101;53.126;6.878;2023-04-09T12:14:15;19.27;;;14.88;;
52102;SDS011;38101;53.126;6.878;2023-04-09T12:16:42;22.70;;;15.90;;
52102;SDS011;38101;53.126;6.878;2023-04-09T12:19:09;23.65;;;16.73;;
52102;SDS011;38101;53.126;6.878;2023-04-09T12:24:15;22.02;;;17.15;;
52102;SDS011;38101;53.126;6.878;2023-04-09T12:26:43;18.80;;;14.00;;
52102;SDS011;38101;53.126;6.878;2023-04-09T12:29:10;19.35;;;14.80;;
52102;SDS011;38101;53.126;6.878;2023-04-09T12:31:35;20.30;;;14.73;;
52102;SDS011;38101;53.126;6.878;2023-04-09T12:34:01;19.70;;;14.98;;
52102;SDS011;38101;53.126;6.878;2023-04-09T12:36:27;19.67;;;15.10;;
52102;SDS011;38101;53.126;6.878;2023-04-09T12:38:53;17.63;;;13.40;;
52102;SDS011;38101;53.126;6.878;2023-04-09T12:41:19;17.65;;;12.98;;
52102;SDS011;38101;53.126;6.878;2023-04-09T12:43:46;18.30;;;14.13;;
52102;SDS011;38101;53.126;6.878;2023-04-09T12:46:12;17.58;;;13.70;;
52102;SDS011;38101;53.126;6.878;2023-04-09T12:48:38;16.90;;;12.68;;
52102;SDS011;38101;53.126;6.878;2023-04-09T12:51:04;16.45;;;13.02;;
52102;SDS011;38101;53.126;6.878;2023-04-09T12:53:30;15.80;;;12.25;;
52102;SDS011;38101;53.126;6.878;2023-04-09T12:55:56;17.75;;;13.18;;
52102;SDS011;38101;53.126;6.878;2023-04-09T12:58:22;15.95;;;13.20;;
52102;SDS011;38101;53.126;6.878;2023-04-09T13:00:48;17.38;;;13.40;;
52102;SDS011;38101;53.126;6.878;2023-04-09T13:03:14;18.27;;;12.73;;
52102;SDS011;38101;53.126;6.878;2023-04-09T13:05:40;15.15;;;12.48;;
52102;SDS011;38101;53.126;6.878;2023-04-09T13:08:07;17.85;;;13.55;;
52102;SDS011;38101;53.126;6.878;2023-04-09T13:10:33;17.33;;;13.23;;
52102;SDS011;38101;53.126;6.878;2023-04-09T13:12:59;18.48;;;13.65;;
52102;SDS011;38101;53.126;6.878;2023-04-09T13:15:25;20.50;;;13.52;;
52102;SDS011;38101;53.126;6.878;2023-04-09T13:17:51;16.65;;;12.13;;
52102;SDS011;38101;53.126;6.878;2023-04-09T13:20:17;16.42;;;12.70;;
52102;SDS011;38101;53.126;6.878;2023-04-09T13:22:43;16.45;;;12.73;;
52102;SDS011;38101;53.126;6.878;2023-04-09T13:25:12;21.50;;;12.95;;
52102;SDS011;38101;53.126;6.878;2023-04-09T13:27:39;15.32;;;12.48;;
52102;SDS011;38101;53.126;6.878;2023-04-09T13:30:06;15.48;;;11.90;;
52102;SDS011;38101;53.126;6.878;2023-04-09T13:32:32;15.85;;;12.02;;
52102;SDS011;38101;53.126;6.878;2023-04-09T13:34:57;15.65;;;11.70;;
52102;SDS011;38101;53.126;6.878;2023-04-09T13:37:23;15.27;;;11.25;;
52102;SDS011;38101;53.126;6.878;2023-04-09T13:39:50;16.60;;;12.30;;
52102;SDS011;38101;53.126;6.878;2023-04-09T13:42:16;15.85;;;12.07;;
52102;SDS011;38101;53.126;6.878;2023-04-09T13:44:42;14.35;;;11.13;;
52102;SDS011;38101;53.126;6.878;2023-04-09T13:47:12;15.00;;;11.70;;
52102;SDS011;38101;53.126;6.878;2023-04-09T13:49:40;18.27;;;12.07;;
52102;SDS011;38101;53.126;6.878;2023-04-09T13:52:06;14.57;;;11.82;;
52102;SDS011;38101;53.126;6.878;2023-04-09T13:54:32;15.55;;;10.90;;
52102;SDS011;38101;53.126;6.878;2023-04-09T13:57:01;15.02;;;11.40;;
52102;SDS011;38101;53.126;6.878;2023-04-09T13:59:35;14.23;;;11.10;;
52102;SDS011;38101;53.126;6.878;2023-04-09T14:02:02;14.00;;;11.20;;
52102;SDS011;38101;53.126;6.878;2023-04-09T14:04:28;12.80;;;10.18;;
52102;SDS011;38101;53.126;6.878;2023-04-09T14:06:54;13.75;;;10.43;;
52102;SDS011;38101;53.126;6.878;2023-04-09T14:09:21;14.50;;;10.70;;
52102;SDS011;38101;53.126;6.878;2023-04-09T14:11:46;14.52;;;10.52;;
52102;SDS011;38101;53.126;6.878;2023-04-09T14:14:13;14.27;;;10.88;;
52102;SDS011;38101;53.126;6.878;2023-04-09T14:16:39;13.02;;;9.75;;
52102;SDS011;38101;53.126;6.878;2023-04-09T14:19:05;13.77;;;10.32;;
52102;SDS011;38101;53.126;6.878;2023-04-09T14:21:31;12.05;;;10.00;;
52102;SDS011;38101;53.126;6.878;2023-04-09T14:23:57;14.30;;;10.65;;
52102;SDS011;38101;53.126;6.878;2023-04-09T14:26:23;12.25;;;10.13;;
52102;SDS011;38101;53.126;6.878;2023-04-09T14:28:50;13.23;;;10.75;;
52102;SDS011;38101;53.126;6.878;2023-04-09T14:31:16;13.93;;;11.23;;
52102;SDS011;38101;53.126;6.878;2023-04-09T14:33:45;12.52;;;10.30;;
52102;SDS011;38101;53.126;6.878;2023-04-09T14:36:14;13.63;;;10.40;;
52102;SDS011;38101;53.126;6.878;2023-04-09T14:38:40;14.88;;;10.43;;
52102;SDS011;38101;53.126;6.878;2023-04-09T14:41:05;14.35;;;10.68;;
52102;SDS011;38101;53.126;6.878;2023-04-09T14:43:31;14.35;;;11.10;;
52102;SDS011;38101;53.126;6.878;2023-04-09T14:45:57;12.77;;;10.75;;
52102;SDS011;38101;53.126;6.878;2023-04-09T14:48:23;14.27;;;10.45;;
52102;SDS011;38101;53.126;6.878;2023-04-09T14:50:48;14.60;;;11.30;;
52102;SDS011;38101;53.126;6.878;2023-04-09T14:53:17;14.70;;;11.70;;